Arcadia, Kansas
Current Conditions -  °F | °C
As of 1:15 PM on Friday 24 Oct 2014 (Local Time) from KPTS Reporting Station
Clear Clear  
Wind Chill: 73°   Ceiling: Unl
Heat Index: 73°   Visibility: 10mi
Dew Point: 62°   Wind: 8mph
Humidity: 70%   Direction: 230°SW
Pressure: 30.06"   Gusts: NA
Location:  37.64°N, 94.62°W
Report Text: KPTS 241815Z AUTO 23007KT 10SM CLR 23/17 A3006 RMK AO2 T02250168
Loading
Personal Weather Stations






























Interactive Weather Map
Tropical Storm Tracking
New forecast layout! Learn more

10-Day Weather Forecast

Advertisements
Track Severe Weather on mobile